Time;durP1;ratioP1;P1;durP2;ratioP2;P2;SDS_P1;SDS_P2;PMS_P1;PMS_P2;Temp;Humidity;BMP_temperature;BMP_pressure;BME280_temperature;BME280_humidity;BME280_pressure;Samples;Min_cycle;Max_cycle;Signal;HPM_P1;HPM_P2
2021/03/13 00:00:41;;;;;;;1.40;1.20;;;7.60;99.90;;;;;;5074172;28;20208;-80
2021/03/13 00:03:06;;;;;;;1.30;0.77;;;7.60;99.90;;;;;;5073801;28;20180;-80
2021/03/13 00:05:41;;;;;;;1.20;0.90;;;7.50;99.90;;;;;;5074235;28;20371;-79
2021/03/13 00:08:07;;;;;;;1.00;0.80;;;7.50;99.90;;;;;;5074682;28;20278;-79
2021/03/13 00:10:34;;;;;;;1.48;1.08;;;7.50;99.90;;;;;;5075940;28;20188;-80
2021/03/13 00:13:00;;;;;;;1.42;0.90;;;7.60;99.90;;;;;;5076505;28;20164;-80
2021/03/13 00:15:26;;;;;;;2.63;1.37;;;7.60;99.90;;;;;;5076245;28;20176;-80
2021/03/13 00:17:53;;;;;;;1.10;0.90;;;7.60;99.90;;;;;;5075150;28;20515;-80
2021/03/13 00:20:25;;;;;;;1.92;1.10;;;7.60;99.90;;;;;;5058051;28;20309;-81
2021/03/13 00:22:52;;;;;;;0.98;0.80;;;7.60;99.90;;;;;;5077116;28;20153;-80
2021/03/13 00:25:18;;;;;;;3.88;1.30;;;7.50;99.90;;;;;;5075093;28;20168;-82
2021/03/13 00:27:47;;;;;;;1.33;0.90;;;7.50;99.90;;;;;;5075775;28;20196;-81
2021/03/13 00:30:32;;;;;;;2.25;1.08;;;7.60;99.90;;;;;;5076673;28;20207;-81
2021/03/13 00:33:09;;;;;;;1.85;1.00;;;7.60;99.90;;;;;;5076819;28;20168;-81
2021/03/13 00:35:36;;;;;;;1.67;1.20;;;7.30;99.90;;;;;;5059051;28;20172;-80
2021/03/13 00:38:03;;;;;;;1.10;0.70;;;7.30;99.90;;;;;;5074859;28;20184;-79
2021/03/13 00:40:31;;;;;;;1.33;1.10;;;7.40;99.90;;;;;;5057887;28;20215;-80
2021/03/13 00:42:57;;;;;;;1.10;1.00;;;7.20;99.90;;;;;;5076897;28;20531;-81
2021/03/13 00:45:25;;;;;;;3.20;1.20;;;7.40;99.90;;;;;;5075711;28;20689;-81
2021/03/13 00:47:51;;;;;;;1.73;1.40;;;7.40;99.90;;;;;;5057964;28;20172;-80
2021/03/13 00:50:18;;;;;;;3.08;1.35;;;7.40;99.90;;;;;;5076638;28;20192;-80
2021/03/13 00:52:44;;;;;;;1.38;0.85;;;7.30;99.90;;;;;;5074652;28;20188;-81
2021/03/13 00:55:12;;;;;;;2.85;1.25;;;7.20;99.90;;;;;;5078144;28;20239;-80
2021/03/13 00:57:38;;;;;;;3.35;1.83;;;7.10;99.90;;;;;;5078637;28;20172;-80
2021/03/13 01:00:09;;;;;;;3.27;1.47;;;7.10;99.90;;;;;;5061824;28;20192;-80
2021/03/13 01:02:35;;;;;;;1.63;1.48;;;7.00;99.90;;;;;;5077627;28;20937;-80
2021/03/13 01:05:01;;;;;;;3.03;1.03;;;6.90;99.90;;;;;;5078340;28;20207;-80
2021/03/13 01:07:27;;;;;;;1.38;1.23;;;6.90;99.90;;;;;;5077949;28;20407;-80
2021/03/13 01:09:52;;;;;;;3.30;1.07;;;7.00;99.90;;;;;;5079836;28;20200;-81
2021/03/13 01:12:18;;;;;;;2.43;1.57;;;6.80;99.90;;;;;;5078110;28;20507;-81
2021/03/13 01:14:44;;;;;;;1.33;1.13;;;6.80;99.90;;;;;;5077788;28;20172;-80
2021/03/13 01:17:09;;;;;;;1.80;1.47;;;6.80;99.90;;;;;;5078147;28;20411;-80
2021/03/13 01:19:35;;;;;;;2.47;1.20;;;6.70;99.90;;;;;;5077871;28;20196;-80
2021/03/13 01:22:01;;;;;;;1.20;0.90;;;6.70;99.90;;;;;;5081914;28;20271;-80
2021/03/13 01:24:27;;;;;;;1.05;0.95;;;6.80;99.90;;;;;;5080354;28;20206;-80
2021/03/13 01:26:55;;;;;;;1.63;1.30;;;6.70;99.90;;;;;;5077516;28;20217;-80
2021/03/13 01:29:20;;;;;;;2.45;1.35;;;6.60;99.90;;;;;;5077850;28;20191;-81
2021/03/13 01:31:46;;;;;;;1.67;1.00;;;6.70;99.90;;;;;;5045220;28;20643;-81
2021/03/13 01:34:11;;;;;;;1.87;1.30;;;6.80;99.90;;;;;;5079093;28;20263;-81
2021/03/13 01:36:37;;;;;;;1.43;1.10;;;6.80;99.90;;;;;;5063130;28;20180;-81
2021/03/13 01:39:04;;;;;;;6.10;1.33;;;6.80;99.90;;;;;;5078709;28;20200;-81
2021/03/13 01:41:30;;;;;;;1.58;1.45;;;6.80;99.90;;;;;;5062438;28;20889;-80
2021/03/13 01:43:56;;;;;;;5.60;1.60;;;6.70;99.90;;;;;;5061523;28;20172;-80
2021/03/13 01:46:21;;;;;;;4.53;1.60;;;6.70;99.90;;;;;;5061411;28;20396;-81
2021/03/13 01:48:50;;;;;;;1.50;1.20;;;6.80;99.90;;;;;;5082612;28;20167;-80
2021/03/13 01:51:16;;;;;;;1.73;1.10;;;6.70;99.90;;;;;;5073912;28;20195;-81
2021/03/13 01:53:42;;;;;;;2.00;1.50;;;6.70;99.90;;;;;;5089622;28;20179;-80
2021/03/13 01:56:07;;;;;;;1.63;1.10;;;6.70;99.90;;;;;;5079696;28;20180;-80
2021/03/13 01:58:33;;;;;;;2.17;1.07;;;6.60;99.90;;;;;;5086301;28;20211;-80
2021/03/13 02:00:58;;;;;;;3.13;1.43;;;6.60;99.90;;;;;;5078698;28;20632;-81
2021/03/13 02:03:24;;;;;;;4.27;1.70;;;6.50;99.90;;;;;;5044750;28;20176;-80
2021/03/13 02:05:51;;;;;;;2.70;1.30;;;6.50;99.90;;;;;;5059657;28;20178;-80
2021/03/13 02:08:27;;;;;;;2.25;1.58;;;6.50;99.90;;;;;;5079043;28;20172;-80
2021/03/13 02:11:06;;;;;;;2.80;1.70;;;6.50;99.90;;;;;;5077208;28;20329;-81
2021/03/13 02:13:53;;;;;;;1.95;1.17;;;6.50;99.90;;;;;;5076841;28;20712;-80
2021/03/13 02:16:25;;;;;;;1.30;1.20;;;6.50;99.90;;;;;;5078257;28;20200;-79
2021/03/13 02:19:08;;;;;;;2.00;1.30;;;6.50;99.90;;;;;;5077004;28;20176;-80
2021/03/13 02:21:43;;;;;;;3.45;2.00;;;6.50;99.90;;;;;;5078915;28;20222;-81
2021/03/13 02:24:38;;;;;;;5.07;1.30;;;6.60;99.90;;;;;;5076803;28;20201;-81
2021/03/13 02:27:23;;;;;;;1.98;1.60;;;6.50;99.90;;;;;;5067974;28;20184;-80
2021/03/13 02:29:52;;;;;;;2.42;1.00;;;6.50;99.90;;;;;;5059553;28;20228;-80
2021/03/13 02:32:42;;;;;;;7.22;1.55;;;6.40;99.90;;;;;;5075970;28;20168;-81
2021/03/13 02:35:14;;;;;;;1.73;1.33;;;6.40;99.90;;;;;;5076772;28;20200;-80
2021/03/13 02:37:45;;;;;;;2.90;1.63;;;6.40;99.90;;;;;;5077070;28;20561;-79
2021/03/13 02:40:14;;;;;;;2.88;1.65;;;6.50;99.90;;;;;;5077472;28;20215;-80
2021/03/13 02:43:05;;;;;;;2.75;1.40;;;6.50;99.90;;;;;;5077298;28;20171;-80
2021/03/13 02:45:34;;;;;;;1.60;1.45;;;6.50;99.90;;;;;;5061236;28;20179;-80
2021/03/13 02:48:03;;;;;;;1.55;1.35;;;6.60;99.90;;;;;;5076658;28;20187;-80
2021/03/13 02:50:30;;;;;;;1.80;1.67;;;6.60;99.90;;;;;;5075066;28;20196;-80
2021/03/13 02:52:57;;;;;;;3.25;2.05;;;6.60;99.90;;;;;;5073701;28;20211;-79
2021/03/13 02:55:24;;;;;;;2.58;1.73;;;6.70;99.90;;;;;;5074857;28;20176;-80
2021/03/13 02:57:54;;;;;;;4.97;1.75;;;6.70;99.90;;;;;;5074935;28;20183;-80
2021/03/13 03:00:25;;;;;;;2.83;1.42;;;6.70;99.90;;;;;;5075497;28;20192;-80
2021/03/13 03:02:54;;;;;;;4.90;2.28;;;6.70;99.90;;;;;;5077132;28;20263;-79
2021/03/13 03:05:22;;;;;;;1.73;1.23;;;6.80;99.90;;;;;;5074242;28;20200;-80
2021/03/13 03:07:49;;;;;;;3.45;2.13;;;6.90;99.90;;;;;;5074518;28;20172;-80
2021/03/13 03:10:17;;;;;;;1.95;1.23;;;6.80;99.90;;;;;;5073469;28;20194;-80
2021/03/13 03:12:43;;;;;;;3.53;2.15;;;6.90;99.90;;;;;;5057093;28;20172;-80
2021/03/13 03:15:10;;;;;;;2.85;1.98;;;6.80;99.90;;;;;;5057387;28;20183;-79
2021/03/13 03:17:38;;;;;;;3.38;1.67;;;6.80;99.90;;;;;;5074344;28;20166;-79
2021/03/13 03:20:07;;;;;;;5.10;1.80;;;6.90;99.90;;;;;;5075264;28;20187;-80
2021/03/13 03:22:36;;;;;;;2.80;1.67;;;6.70;99.90;;;;;;5074529;28;20199;-79
2021/03/13 03:25:03;;;;;;;1.77;1.58;;;6.70;99.90;;;;;;5073910;28;20171;-79
2021/03/13 03:27:29;;;;;;;2.05;1.67;;;6.80;99.90;;;;;;5073934;28;20503;-79
2021/03/13 03:30:03;;;;;;;3.73;1.70;;;7.00;99.90;;;;;;5075418;28;20199;-80
2021/03/13 03:32:29;;;;;;;2.83;1.42;;;7.10;99.90;;;;;;5077360;28;20167;-80
2021/03/13 03:34:54;;;;;;;3.03;1.47;;;7.10;99.90;;;;;;5075268;28;20581;-81
2021/03/13 03:37:20;;;;;;;3.33;1.20;;;7.10;99.90;;;;;;5075802;28;20175;-81
2021/03/13 03:39:46;;;;;;;1.80;1.10;;;7.20;99.90;;;;;;5074848;28;20195;-82
2021/03/13 03:42:13;;;;;;;2.07;1.53;;;7.20;99.90;;;;;;5076380;28;20195;-82
2021/03/13 03:44:43;;;;;;;4.85;1.60;;;7.10;99.90;;;;;;5075037;28;20203;-82
2021/03/13 03:47:10;;;;;;;1.50;1.40;;;7.10;99.90;;;;;;5076847;28;20666;-81
2021/03/13 03:49:39;;;;;;;1.50;1.30;;;7.20;99.90;;;;;;5076665;28;20198;-82
2021/03/13 03:52:06;;;;;;;1.90;1.25;;;7.20;99.90;;;;;;5067461;28;20187;-81
2021/03/13 03:54:36;;;;;;;2.78;2.05;;;7.10;99.90;;;;;;5090202;28;20176;-82
2021/03/13 03:57:08;;;;;;;4.00;1.40;;;7.20;99.90;;;;;;5089987;28;20160;-81
2021/03/13 03:59:36;;;;;;;1.27;1.17;;;7.20;99.90;;;;;;5056326;28;20196;-81
2021/03/13 04:02:02;;;;;;;1.65;1.20;;;7.20;99.90;;;;;;5082798;28;20670;-81
2021/03/13 04:04:29;;;;;;;3.75;1.38;;;7.20;99.90;;;;;;5059356;28;20186;-80
2021/03/13 04:06:57;;;;;;;1.40;1.27;;;7.20;99.90;;;;;;5075341;28;20168;-81
2021/03/13 04:09:26;;;;;;;1.65;1.40;;;7.20;99.90;;;;;;5076242;28;20281;-81
2021/03/13 04:11:53;;;;;;;3.58;1.48;;;7.20;99.90;;;;;;5076133;28;20195;-81
2021/03/13 04:14:18;;;;;;;2.20;1.20;;;7.20;99.90;;;;;;5076627;28;20259;-80
2021/03/13 04:16:45;;;;;;;1.13;1.03;;;7.10;99.90;;;;;;5078141;28;20222;-81
2021/03/13 04:19:12;;;;;;;1.90;1.50;;;7.10;99.90;;;;;;5076718;28;20242;-81
2021/03/13 04:21:37;;;;;;;3.60;1.58;;;7.10;99.90;;;;;;5075895;28;20238;-81
2021/03/13 04:24:04;;;;;;;2.17;1.90;;;7.20;99.90;;;;;;5042860;28;20639;-81
2021/03/13 04:26:34;;;;;;;2.30;1.60;;;7.10;99.90;;;;;;5075871;28;20411;-82
2021/03/13 04:29:00;;;;;;;1.48;1.23;;;7.10;99.90;;;;;;5077927;28;20195;-83
2021/03/13 04:31:31;;;;;;;2.27;1.70;;;7.00;99.90;;;;;;5063030;28;20174;-81
2021/03/13 04:33:59;;;;;;;1.45;1.25;;;7.00;99.90;;;;;;5081777;28;20183;-81
2021/03/13 04:36:29;;;;;;;9.13;1.73;;;7.00;99.90;;;;;;5081384;28;20172;-82
2021/03/13 04:38:57;;;;;;;1.27;1.17;;;7.00;99.90;;;;;;5080055;28;20176;-81
2021/03/13 04:41:24;;;;;;;1.60;1.33;;;7.00;99.90;;;;;;5079374;28;20229;-82
2021/03/13 04:43:51;;;;;;;7.50;1.60;;;7.00;99.90;;;;;;5080068;28;20203;-81
2021/03/13 04:46:17;;;;;;;2.30;1.58;;;7.00;99.90;;;;;;5079069;28;20545;-83
2021/03/13 04:48:42;;;;;;;4.00;1.10;;;7.00;99.90;;;;;;5079387;28;20179;-82
2021/03/13 04:51:08;;;;;;;4.30;1.77;;;7.00;99.90;;;;;;5080090;28;20428;-81
2021/03/13 04:53:34;;;;;;;2.10;1.27;;;7.00;99.90;;;;;;5079805;28;20234;-81
2021/03/13 04:56:00;;;;;;;1.33;1.05;;;7.00;99.90;;;;;;5078435;28;20191;-81
2021/03/13 04:58:29;;;;;;;1.87;1.53;;;7.10;99.90;;;;;;5078193;28;20180;-82
2021/03/13 05:00:55;;;;;;;3.05;1.50;;;7.10;99.90;;;;;;5077230;28;20523;-81
2021/03/13 05:03:21;;;;;;;1.90;1.70;;;7.10;99.90;;;;;;5079462;28;20616;-80
2021/03/13 05:05:46;;;;;;;1.43;1.10;;;7.00;99.90;;;;;;5076764;28;20173;-81
2021/03/13 05:08:12;;;;;;;2.87;1.57;;;7.00;99.90;;;;;;5077276;28;20164;-81
2021/03/13 05:10:37;;;;;;;2.10;1.83;;;7.00;99.90;;;;;;5081000;28;20539;-81
2021/03/13 05:13:03;;;;;;;2.00;1.40;;;7.00;99.90;;;;;;5080366;28;20566;-82
2021/03/13 05:15:29;;;;;;;1.87;1.33;;;7.00;99.90;;;;;;5078811;28;20180;-82
2021/03/13 05:17:55;;;;;;;5.50;2.20;;;7.00;99.90;;;;;;5062627;28;20233;-82
2021/03/13 05:20:21;;;;;;;1.50;1.10;;;7.00;99.90;;;;;;5080208;28;20196;-82
2021/03/13 05:22:53;;;;;;;3.90;1.40;;;7.00;99.90;;;;;;5078673;28;20188;-81
2021/03/13 05:25:19;;;;;;;2.67;1.42;;;7.00;99.90;;;;;;5078924;28;20176;-81
2021/03/13 05:27:45;;;;;;;2.50;1.63;;;6.90;99.90;;;;;;5079232;28;20180;-81
2021/03/13 05:30:12;;;;;;;1.65;1.55;;;7.00;99.90;;;;;;5084558;28;20230;-80
2021/03/13 05:32:38;;;;;;;1.83;1.50;;;7.00;99.90;;;;;;5086917;28;20195;-80
2021/03/13 05:35:07;;;;;;;1.58;1.20;;;6.90;99.90;;;;;;5086953;28;20229;-80
2021/03/13 05:37:32;;;;;;;1.58;1.45;;;7.00;99.90;;;;;;5080311;28;20164;-80
2021/03/13 05:39:58;;;;;;;2.37;1.30;;;7.00;99.90;;;;;;5077103;28;20249;-81
2021/03/13 05:42:26;;;;;;;1.80;1.40;;;6.90;99.90;;;;;;5086400;28;20234;-82
2021/03/13 05:44:54;;;;;;;4.40;1.42;;;6.90;99.90;;;;;;5084365;28;20176;-81
2021/03/13 05:47:20;;;;;;;1.65;1.40;;;6.90;99.90;;;;;;5079509;28;20580;-82
2021/03/13 05:49:55;;;;;;;1.58;1.30;;;7.00;99.90;;;;;;5079208;28;20192;-82
2021/03/13 05:52:23;;;;;;;9.70;1.45;;;7.00;99.90;;;;;;5061134;28;20192;-82
2021/03/13 05:54:52;;;;;;;1.85;1.60;;;7.00;99.90;;;;;;5058569;28;20216;-81
2021/03/13 05:57:19;;;;;;;2.03;1.83;;;7.00;99.90;;;;;;5057773;28;20191;-82
2021/03/13 05:59:45;;;;;;;1.88;1.70;;;7.00;99.90;;;;;;5057214;28;20208;-82
2021/03/13 06:02:10;;;;;;;2.83;1.60;;;7.10;99.90;;;;;;5072894;28;20211;-81
2021/03/13 06:04:36;;;;;;;5.63;1.70;;;7.10;99.90;;;;;;5075376;28;20172;-80
2021/03/13 06:07:01;;;;;;;2.70;1.77;;;7.10;99.90;;;;;;5058571;28;20187;-82
2021/03/13 06:09:27;;;;;;;1.60;1.43;;;7.20;99.90;;;;;;5060523;28;20224;-82
2021/03/13 06:11:53;;;;;;;1.53;1.43;;;7.20;99.90;;;;;;5072386;28;20310;-81
2021/03/13 06:14:19;;;;;;;2.43;1.57;;;7.20;99.90;;;;;;5073302;28;20194;-82
2021/03/13 06:16:46;;;;;;;4.63;2.23;;;7.20;99.90;;;;;;5062230;28;20663;-81
2021/03/13 06:19:12;;;;;;;3.53;1.60;;;7.30;99.90;;;;;;5073111;28;20438;-82
2021/03/13 06:21:40;;;;;;;2.90;1.45;;;7.30;99.90;;;;;;5057351;28;20230;-83
2021/03/13 06:24:24;;;;;;;2.00;1.70;;;7.30;99.90;;;;;;5071115;28;20194;-83
2021/03/13 06:26:51;;;;;;;1.45;1.35;;;7.30;99.90;;;;;;5066330;28;20300;-82
2021/03/13 06:29:17;;;;;;;1.98;1.50;;;7.40;99.90;;;;;;5057418;28;20197;-83
2021/03/13 06:31:42;;;;;;;3.17;1.70;;;7.50;99.90;;;;;;5035162;28;20205;-83
2021/03/13 06:34:27;;;;;;;3.70;1.97;;;7.50;99.90;;;;;;5042573;28;20417;-82
2021/03/13 06:37:21;;;;;;;2.13;1.30;;;7.50;99.90;;;;;;5073605;28;20176;-81
2021/03/13 06:39:46;;;;;;;2.97;1.45;;;7.60;99.90;;;;;;5059661;28;20755;-81
2021/03/13 06:42:27;;;;;;;2.20;1.60;;;7.60;99.90;;;;;;5073710;28;20239;-81
2021/03/13 06:45:05;;;;;;;3.85;1.88;;;7.70;99.90;;;;;;5066809;28;20279;-80
2021/03/13 06:47:39;;;;;;;2.67;1.25;;;7.70;99.90;;;;;;5066645;28;20231;-81
2021/03/13 06:50:26;;;;;;;7.38;3.42;;;7.80;99.90;;;;;;5068004;28;20204;-80
2021/03/13 06:53:06;;;;;;;2.10;1.42;;;7.80;99.90;;;;;;5076334;28;20187;-80
2021/03/13 06:55:32;;;;;;;4.00;1.73;;;7.90;99.90;;;;;;5071576;28;20176;-80
2021/03/13 06:58:10;;;;;;;2.23;1.60;;;7.90;99.90;;;;;;5057801;28;20244;-80
2021/03/13 07:00:37;;;;;;;1.58;1.25;;;7.90;99.90;;;;;;5058057;28;20809;-79
2021/03/13 07:03:13;;;;;;;9.05;1.67;;;7.90;99.90;;;;;;5057222;28;20165;-79
2021/03/13 07:05:41;;;;;;;3.83;1.50;;;7.90;99.90;;;;;;5055601;28;20195;-80
2021/03/13 07:08:27;;;;;;;4.47;1.75;;;7.90;99.90;;;;;;5059044;28;20172;-82
2021/03/13 07:11:11;;;;;;;2.00;1.33;;;7.90;99.90;;;;;;5075652;28;20336;-80
2021/03/13 07:13:43;;;;;;;1.65;1.55;;;7.90;99.90;;;;;;5067168;28;20176;-80
2021/03/13 07:16:26;;;;;;;1.75;1.50;;;8.00;99.90;;;;;;5076276;28;20195;-81
2021/03/13 07:19:05;;;;;;;2.58;1.30;;;8.10;99.90;;;;;;5062781;28;20176;-82
2021/03/13 07:21:35;;;;;;;1.65;1.23;;;8.00;99.90;;;;;;5056747;28;20576;-79
2021/03/13 07:24:04;;;;;;;3.38;1.80;;;8.00;99.90;;;;;;5072353;28;20168;-79
2021/03/13 07:26:50;;;;;;;3.63;2.17;;;8.10;99.90;;;;;;5073855;28;20168;-80
2021/03/13 07:29:22;;;;;;;1.95;1.50;;;8.20;99.90;;;;;;5056529;28;20184;-81
2021/03/13 07:31:58;;;;;;;4.13;1.92;;;8.20;99.90;;;;;;5059598;28;20707;-80
2021/03/13 07:34:33;;;;;;;2.67;1.75;;;8.30;99.90;;;;;;5056877;28;20177;-82
2021/03/13 07:37:07;;;;;;;2.47;1.30;;;8.20;99.90;;;;;;5059030;28;20199;-81
2021/03/13 07:39:47;;;;;;;3.53;1.77;;;8.20;99.90;;;;;;5062491;28;20200;-80
2021/03/13 07:42:21;;;;;;;1.80;1.30;;;8.20;99.90;;;;;;5075824;28;20196;-81
2021/03/13 07:44:48;;;;;;;2.88;1.73;;;8.20;99.90;;;;;;5056117;28;20161;-81
2021/03/13 07:47:19;;;;;;;1.80;1.27;;;8.20;99.90;;;;;;5055005;28;20687;-82
2021/03/13 07:49:45;;;;;;;3.95;2.00;;;8.20;99.90;;;;;;5065607;28;20215;-82
2021/03/13 07:52:13;;;;;;;1.42;1.17;;;8.20;99.90;;;;;;5067136;28;20199;-80
2021/03/13 07:54:42;;;;;;;3.35;1.90;;;8.20;99.90;;;;;;5062483;28;20202;-80
2021/03/13 07:57:10;;;;;;;2.42;2.00;;;8.20;99.90;;;;;;5065993;28;20634;-80
2021/03/13 07:59:53;;;;;;;1.80;1.70;;;8.10;99.90;;;;;;5065013;28;20616;-80
2021/03/13 08:02:32;;;;;;;7.38;2.75;;;8.00;99.90;;;;;;5056111;28;20294;-80
2021/03/13 08:05:08;;;;;;;4.28;1.95;;;8.10;99.90;;;;;;5071064;28;20175;-82
2021/03/13 08:07:56;;;;;;;2.20;1.55;;;10.70;99.90;;;;;;5078901;28;20262;-82
2021/03/13 08:10:47;;;;;;;2.78;2.05;;;10.40;99.90;;;;;;5065834;28;20184;-81
2021/03/13 08:13:27;;;;;;;2.30;1.35;;;10.20;99.90;;;;;;5042919;28;20528;-81
2021/03/13 08:16:42;;;;;;;2.38;1.63;;;11.10;99.90;;;;;;5076882;28;20175;-80
2021/03/13 08:19:37;;;;;;;6.15;2.28;;;11.20;99.90;;;;;;5061751;28;20204;-82
2021/03/13 08:22:22;;;;;;;4.05;1.83;;;11.70;99.90;;;;;;5059958;28;20197;-81
2021/03/13 08:24:51;;;;;;;1.40;1.23;;;12.20;99.90;;;;;;5062616;28;20178;-81
2021/03/13 08:27:39;;;;;;;4.03;2.72;;;10.70;99.90;;;;;;5060412;28;20256;-80
2021/03/13 08:30:25;;;;;;;1.95;1.48;;;10.20;99.90;;;;;;5074521;28;20619;-82
2021/03/13 08:33:07;;;;;;;1.98;1.40;;;9.70;99.90;;;;;;5076631;28;20175;-79
2021/03/13 08:36:14;;;;;;;4.50;1.88;;;9.40;99.90;;;;;;5074043;28;20188;-79
2021/03/13 08:39:07;;;;;;;3.92;2.25;;;9.00;99.90;;;;;;5075337;28;20172;-79
2021/03/13 08:41:42;;;;;;;3.28;1.90;;;8.60;99.90;;;;;;5057100;28;20205;-78
2021/03/13 08:44:11;;;;;;;2.80;2.58;;;8.40;99.90;;;;;;5068294;28;20159;-80
2021/03/13 08:47:17;;;;;;;2.40;1.73;;;8.40;99.90;;;;;;5078044;28;20190;-79
2021/03/13 08:49:50;;;;;;;2.58;1.98;;;8.20;99.90;;;;;;5020421;28;20217;-79
2021/03/13 08:52:18;;;;;;;5.78;2.28;;;8.20;99.90;;;;;;5017283;28;20240;-80
2021/03/13 08:54:48;;;;;;;2.65;1.60;;;8.10;99.90;;;;;;5045872;28;20230;-81
2021/03/13 08:57:14;;;;;;;1.80;1.60;;;8.10;99.90;;;;;;5042901;28;20172;-80
2021/03/13 08:59:42;;;;;;;1.52;1.38;;;8.20;99.90;;;;;;5061245;28;20658;-80
2021/03/13 09:02:11;;;;;;;1.77;1.60;;;8.10;99.90;;;;;;5070213;28;20204;-80
2021/03/13 09:04:38;;;;;;;4.22;2.05;;;8.00;99.90;;;;;;5072884;28;20195;-81
2021/03/13 09:07:07;;;;;;;1.80;1.70;;;8.10;99.90;;;;;;5080398;28;20729;-81
2021/03/13 09:09:35;;;;;;;3.50;1.88;;;8.10;99.90;;;;;;5060926;28;20196;-82
2021/03/13 09:12:02;;;;;;;3.80;2.00;;;8.10;99.90;;;;;;5061429;28;20185;-80
2021/03/13 09:14:29;;;;;;;2.15;2.00;;;8.20;99.90;;;;;;5062480;28;20172;-81
2021/03/13 09:16:54;;;;;;;2.92;1.77;;;8.10;99.90;;;;;;5042528;28;20184;-82
2021/03/13 09:19:23;;;;;;;2.80;1.47;;;8.10;99.90;;;;;;5075245;28;20214;-81
2021/03/13 09:21:56;;;;;;;4.43;2.05;;;8.00;99.90;;;;;;5068840;28;20454;-80
2021/03/13 09:24:27;;;;;;;4.80;2.08;;;8.00;99.90;;;;;;5066964;28;20541;-80
2021/03/13 09:27:03;;;;;;;2.97;1.70;;;8.00;99.90;;;;;;5065478;28;20179;-85
2021/03/13 09:29:33;;;;;;;2.42;1.65;;;7.90;99.90;;;;;;5079977;28;20690;-83
2021/03/13 09:32:06;;;;;;;2.40;1.90;;;7.90;99.90;;;;;;5061219;28;20210;-81
2021/03/13 09:34:37;;;;;;;2.70;1.73;;;7.90;99.90;;;;;;5066546;28;20176;-81
2021/03/13 09:37:23;;;;;;;1.60;1.30;;;7.90;99.90;;;;;;5076558;28;20176;-80
2021/03/13 09:39:53;;;;;;;1.42;1.30;;;7.90;99.90;;;;;;5078647;28;20191;-81
2021/03/13 09:42:24;;;;;;;2.67;1.50;;;8.00;99.90;;;;;;5075508;28;20207;-81
2021/03/13 09:44:58;;;;;;;3.05;1.45;;;8.00;99.90;;;;;;5075798;28;20169;-79
2021/03/13 09:47:34;;;;;;;1.80;1.20;;;8.00;99.90;;;;;;5058899;28;20175;-79
2021/03/13 09:50:13;;;;;;;1.58;1.30;;;8.00;99.90;;;;;;5063220;28;20260;-79
2021/03/13 09:52:43;;;;;;;1.70;1.50;;;8.00;99.90;;;;;;5069998;28;20693;-81
2021/03/13 09:55:17;;;;;;;1.33;1.20;;;8.20;99.90;;;;;;5061497;28;20546;-80
2021/03/13 09:57:54;;;;;;;1.35;1.25;;;8.10;99.90;;;;;;5071772;28;20180;-79
2021/03/13 10:00:39;;;;;;;7.43;2.13;;;8.30;99.90;;;;;;5076517;28;20527;-79
2021/03/13 10:03:10;;;;;;;4.10;1.45;;;8.20;99.90;;;;;;5064645;28;20240;-80
2021/03/13 10:05:36;;;;;;;1.30;1.20;;;8.20;99.90;;;;;;5060204;28;20169;-78
2021/03/13 10:08:07;;;;;;;5.20;1.27;;;8.10;99.90;;;;;;5061442;28;20720;-79
2021/03/13 10:10:33;;;;;;;1.98;1.60;;;8.10;99.90;;;;;;5057632;28;20451;-80
2021/03/13 10:13:06;;;;;;;1.55;1.45;;;8.20;99.90;;;;;;5067959;28;20176;-80
2021/03/13 10:15:34;;;;;;;1.42;1.33;;;8.30;99.90;;;;;;5070717;28;20195;-80
2021/03/13 10:18:15;;;;;;;2.17;1.50;;;8.20;99.90;;;;;;5071104;28;20517;-81
2021/03/13 10:20:49;;;;;;;2.15;1.30;;;8.20;99.90;;;;;;5064000;28;20192;-79
2021/03/13 10:23:17;;;;;;;1.23;1.13;;;8.30;99.90;;;;;;5080026;28;20168;-79
2021/03/13 10:25:53;;;;;;;1.83;1.50;;;8.40;99.90;;;;;;5074417;28;20592;-79
2021/03/13 10:28:19;;;;;;;1.30;1.20;;;8.40;99.90;;;;;;5088700;28;20199;-80
2021/03/13 10:30:46;;;;;;;1.42;1.20;;;8.50;99.90;;;;;;5085632;28;20191;-81
2021/03/13 10:33:12;;;;;;;1.95;1.40;;;8.60;99.90;;;;;;5079839;28;20523;-79
2021/03/13 10:35:38;;;;;;;7.28;1.10;;;8.60;99.90;;;;;;5071230;28;20173;-81
2021/03/13 10:38:17;;;;;;;1.55;1.45;;;8.60;99.90;;;;;;5073470;28;20264;-80
2021/03/13 10:40:47;;;;;;;1.45;1.20;;;8.60;99.90;;;;;;5077862;28;20196;-81
2021/03/13 10:43:21;;;;;;;2.28;1.00;;;8.60;99.90;;;;;;5076280;28;20167;-80
2021/03/13 10:46:02;;;;;;;1.88;1.10;;;8.70;99.90;;;;;;5078664;28;20603;-79
2021/03/13 10:48:31;;;;;;;2.17;1.42;;;8.70;99.90;;;;;;5077047;28;20211;-80
2021/03/13 10:50:57;;;;;;;1.20;1.02;;;8.70;99.90;;;;;;5072186;28;20200;-79
2021/03/13 10:53:31;;;;;;;2.55;1.35;;;8.70;99.90;;;;;;5054487;28;20184;-78
2021/03/13 10:56:03;;;;;;;1.52;1.02;;;8.70;99.90;;;;;;5076263;28;20679;-79
2021/03/13 10:58:33;;;;;;;2.05;1.20;;;8.70;99.90;;;;;;5076571;28;20172;-79
2021/03/13 11:01:02;;;;;;;1.63;1.00;;;8.70;99.90;;;;;;5075055;28;20286;-80
2021/03/13 11:03:28;;;;;;;1.25;1.15;;;8.80;99.90;;;;;;5076335;28;20172;-79
2021/03/13 11:06:00;;;;;;;1.23;1.13;;;8.70;99.90;;;;;;5075740;28;20173;-80
2021/03/13 11:08:29;;;;;;;1.00;0.80;;;8.80;99.90;;;;;;5055548;28;20956;-80
2021/03/13 11:10:56;;;;;;;3.50;0.80;;;8.80;99.90;;;;;;5065157;28;20675;-79
2021/03/13 11:13:23;;;;;;;1.00;0.80;;;8.80;99.90;;;;;;5058589;28;20184;-80
2021/03/13 11:15:49;;;;;;;1.30;0.90;;;8.80;99.90;;;;;;5056717;28;20183;-78
2021/03/13 11:18:15;;;;;;;1.60;1.10;;;8.90;99.90;;;;;;5074321;28;20172;-79
2021/03/13 11:20:43;;;;;;;1.02;0.90;;;9.00;99.90;;;;;;5056678;28;20204;-80
2021/03/13 11:23:09;;;;;;;2.45;1.52;;;9.10;99.90;;;;;;5061105;28;20835;-79
2021/03/13 11:25:35;;;;;;;1.57;0.90;;;9.20;99.90;;;;;;5055748;28;20188;-79
2021/03/13 11:28:01;;;;;;;0.85;0.70;;;9.30;99.90;;;;;;5057583;28;20434;-79
2021/03/13 11:30:27;;;;;;;1.30;0.90;;;9.40;99.90;;;;;;5054317;28;20192;-80
2021/03/13 11:32:53;;;;;;;1.83;1.70;;;9.40;99.90;;;;;;5067786;28;20167;-80
2021/03/13 11:35:19;;;;;;;1.00;0.83;;;9.30;99.90;;;;;;5069980;28;20208;-80
2021/03/13 11:37:47;;;;;;;2.58;0.95;;;9.40;99.90;;;;;;5071062;28;20510;-79
2021/03/13 11:40:22;;;;;;;3.38;1.38;;;9.40;99.90;;;;;;5074902;28;20214;-79
2021/03/13 11:42:49;;;;;;;1.33;1.05;;;9.40;99.90;;;;;;5061369;28;20240;-79
2021/03/13 11:45:22;;;;;;;1.60;1.17;;;9.50;99.90;;;;;;5073659;28;20179;-79
2021/03/13 11:47:52;;;;;;;2.55;1.23;;;9.50;99.90;;;;;;5063142;28;20219;-79
2021/03/13 11:50:19;;;;;;;1.88;1.27;;;9.60;99.90;;;;;;5063340;28;20317;-78
2021/03/13 11:52:54;;;;;;;1.30;0.95;;;9.70;99.90;;;;;;5053563;28;20199;-81
2021/03/13 11:55:20;;;;;;;1.70;1.33;;;9.90;99.90;;;;;;5056839;28;20204;-80
2021/03/13 11:57:46;;;;;;;1.58;1.40;;;10.00;99.90;;;;;;5060634;28;20705;-79
2021/03/13 12:00:12;;;;;;;2.00;1.03;;;10.10;99.90;;;;;;5059795;28;20244;-79
2021/03/13 12:02:38;;;;;;;2.10;1.13;;;10.20;99.90;;;;;;5060331;28;20265;-79
2021/03/13 12:05:06;;;;;;;1.33;0.98;;;10.30;99.90;;;;;;5062948;28;20180;-79
2021/03/13 12:07:31;;;;;;;1.70;1.25;;;10.30;99.90;;;;;;5059091;28;20184;-78
2021/03/13 12:10:05;;;;;;;1.07;0.97;;;10.40;99.90;;;;;;5075707;28;20230;-80
2021/03/13 12:12:33;;;;;;;1.92;1.45;;;10.50;99.90;;;;;;5074200;28;20180;-79
2021/03/13 12:14:59;;;;;;;1.20;0.90;;;10.70;99.90;;;;;;5056639;28;20169;-79
2021/03/13 12:17:27;;;;;;;2.23;1.23;;;10.70;99.90;;;;;;5058954;28;20168;-80
2021/03/13 12:19:53;;;;;;;1.10;0.80;;;10.80;99.90;;;;;;5074364;28;20192;-79
2021/03/13 12:22:21;;;;;;;4.40;1.43;;;10.80;99.90;;;;;;5075060;28;20604;-79
2021/03/13 12:24:48;;;;;;;2.70;1.23;;;10.80;99.90;;;;;;5061733;28;20177;-79
2021/03/13 12:27:13;;;;;;;2.47;1.20;;;10.80;99.90;;;;;;5055480;28;20567;-79
2021/03/13 12:29:42;;;;;;;1.77;1.67;;;10.80;99.90;;;;;;5055851;28;20192;-80
2021/03/13 12:32:07;;;;;;;1.70;1.35;;;10.80;99.90;;;;;;5056118;28;20655;-79
2021/03/13 12:34:39;;;;;;;2.70;1.00;;;10.90;99.90;;;;;;5054039;28;20184;-79
2021/03/13 12:37:04;;;;;;;2.63;1.38;;;10.90;99.90;;;;;;5060192;28;20172;-79
2021/03/13 12:39:30;;;;;;;1.73;1.10;;;10.90;99.90;;;;;;5074757;28;20226;-80
2021/03/13 12:41:57;;;;;;;1.40;1.20;;;11.00;99.90;;;;;;5054407;28;20228;-79
2021/03/13 12:44:22;;;;;;;3.28;1.30;;;11.00;99.90;;;;;;5063832;28;20179;-80
2021/03/13 12:46:48;;;;;;;1.10;1.00;;;11.10;99.90;;;;;;5075837;28;20172;-80
2021/03/13 12:49:13;;;;;;;7.87;1.37;;;11.10;99.90;;;;;;5053810;28;20258;-81
2021/03/13 12:51:42;;;;;;;9.00;4.63;;;11.20;99.90;;;;;;5062070;28;20197;-81
2021/03/13 12:54:08;;;;;;;1.42;1.23;;;11.30;99.90;;;;;;5076810;28;20186;-81
2021/03/13 12:56:41;;;;;;;5.13;1.30;;;11.50;99.90;;;;;;5058177;28;20700;-80
2021/03/13 12:59:15;;;;;;;1.75;1.00;;;11.50;99.90;;;;;;5061475;28;20202;-81
2021/03/13 13:01:40;;;;;;;1.80;1.00;;;11.60;99.90;;;;;;5073518;28;20199;-79
2021/03/13 13:04:06;;;;;;;6.10;2.17;;;11.50;99.90;;;;;;5074998;28;20187;-79
2021/03/13 13:06:32;;;;;;;1.57;1.00;;;11.40;99.90;;;;;;5069187;28;20192;-79
2021/03/13 13:08:58;;;;;;;2.25;1.05;;;11.30;99.90;;;;;;5057425;28;20215;-80
2021/03/13 13:11:24;;;;;;;1.35;0.98;;;11.20;99.90;;;;;;5057562;28;20185;-80